41MA weather

Public forecast

Using degrees Fahrenheit for public forecast. Weather courtesy of forecast.io.

Closest aviation weather report (METAR) to Haney Heliport

Closest report is Cape Cod Coast Guard Air Station, 4.6 nm (8.5 km) NNW. Retrieved 2020/08/09 07:56 UTC (31 minutes ago):

KFMH 090756Z 21004KT 10SM CLR 19/18 A3013

Closest aviation forecast (TAF) to Haney Heliport

Closest forecast is Cape Cod Coast Guard Air Station, 4.6 nm (8.5 km) NNW. Retrieved 2020/08/09 06:22 UTC (2 hours ago):

TAF KFMH 090520Z 0906/1006 21010KT P6SM OVC010 FM091200 23006KT P6SM FEW010 FM091700 21008KT P6SM SCT050 FM100000 21009KT P6SM SCT250